Time;durP1;ratioP1;P1;durP2;ratioP2;P2;SDS_P1;SDS_P2;PMS_P1;PMS_P2;Temp;Humidity;BMP_temperature;BMP_pressure;BME280_temperature;BME280_humidity;BME280_pressure;Samples;Min_cycle;Max_cycle;Signal;HPM_P1;HPM_P2
2023/02/18 00:00:57;;;;;;;1.42;1.33;;;13.00;79.30;;;;;;5015038;28;20037;-59
2023/02/18 00:03:26;;;;;;;1.88;1.20;;;13.00;79.30;;;;;;5014849;28;20048;-59
2023/02/18 00:05:52;;;;;;;1.55;1.25;;;13.00;79.30;;;;;;5018512;28;20034;-61
2023/02/18 00:08:18;;;;;;;3.05;1.70;;;13.00;79.40;;;;;;5017891;28;20554;-62
2023/02/18 00:10:44;;;;;;;3.35;1.20;;;13.00;79.40;;;;;;5019890;28;20042;-61
2023/02/18 00:13:09;;;;;;;2.95;1.70;;;13.00;79.40;;;;;;5014557;28;20515;-61
2023/02/18 00:15:36;;;;;;;1.52;1.35;;;13.00;79.30;;;;;;5015530;28;20038;-61
2023/02/18 00:18:02;;;;;;;2.75;1.48;;;13.00;79.30;;;;;;5016745;28;20045;-61
2023/02/18 00:20:28;;;;;;;1.98;1.60;;;13.00;79.30;;;;;;5016451;28;20045;-60
2023/02/18 00:22:53;;;;;;;2.67;1.27;;;13.00;79.30;;;;;;5014701;28;20034;-60
2023/02/18 00:25:19;;;;;;;1.75;1.42;;;13.00;79.20;;;;;;5015252;28;20049;-59
2023/02/18 00:27:44;;;;;;;2.03;1.50;;;13.00;79.10;;;;;;5015303;28;20034;-62
2023/02/18 00:30:11;;;;;;;2.38;1.40;;;13.00;79.20;;;;;;5015179;28;20073;-61
2023/02/18 00:32:36;;;;;;;1.75;1.30;;;13.00;79.10;;;;;;5014901;28;20517;-61
2023/02/18 00:35:02;;;;;;;1.88;1.42;;;13.00;79.10;;;;;;5015691;28;20584;-60
2023/02/18 00:37:28;;;;;;;1.98;1.30;;;13.00;79.10;;;;;;5015540;28;20052;-61
2023/02/18 00:39:53;;;;;;;2.72;1.40;;;13.00;78.90;;;;;;5017558;28;20132;-60
2023/02/18 00:42:20;;;;;;;1.30;1.20;;;13.00;78.90;;;;;;5018612;28;20037;-60
2023/02/18 00:44:45;;;;;;;1.60;1.30;;;13.00;78.90;;;;;;5019178;28;20037;-62
2023/02/18 00:47:11;;;;;;;2.85;1.20;;;13.00;78.90;;;;;;5018890;28;20412;-62
2023/02/18 00:49:37;;;;;;;1.15;1.00;;;13.00;78.80;;;;;;5019427;28;20045;-60
2023/02/18 00:52:03;;;;;;;1.08;1.00;;;13.00;78.80;;;;;;5018196;28;20417;-60
2023/02/18 00:54:28;;;;;;;1.10;1.00;;;13.00;78.90;;;;;;5018822;28;20087;-62
2023/02/18 00:56:54;;;;;;;1.23;0.90;;;13.00;78.90;;;;;;5018793;28;20041;-61
2023/02/18 00:59:20;;;;;;;2.53;0.90;;;13.00;78.90;;;;;;5019449;28;20496;-62
2023/02/18 01:01:45;;;;;;;1.60;0.95;;;13.00;78.90;;;;;;5019740;28;20425;-61
2023/02/18 01:04:11;;;;;;;0.88;0.88;;;13.00;79.00;;;;;;5019277;28;20519;-60
2023/02/18 01:06:37;;;;;;;1.38;1.02;;;13.00;79.00;;;;;;5019082;28;20572;-63
2023/02/18 01:09:05;;;;;;;1.17;1.08;;;12.90;79.00;;;;;;5013368;28;20048;-60
2023/02/18 01:11:30;;;;;;;1.10;1.00;;;12.90;79.10;;;;;;5014805;28;20421;-61
2023/02/18 01:13:56;;;;;;;1.33;1.08;;;12.90;79.10;;;;;;5017482;28;20041;-62
2023/02/18 01:16:22;;;;;;;2.03;1.00;;;12.90;79.30;;;;;;5018733;28;20186;-61
2023/02/18 01:18:47;;;;;;;1.45;0.95;;;12.90;79.30;;;;;;5019417;28;20049;-60
2023/02/18 01:21:13;;;;;;;2.08;1.23;;;12.90;79.30;;;;;;5019442;28;20046;-62
2023/02/18 01:23:40;;;;;;;1.05;0.98;;;12.80;79.60;;;;;;5019914;28;20061;-61
2023/02/18 01:26:07;;;;;;;1.35;1.25;;;12.80;79.60;;;;;;5018322;28;20030;-60
2023/02/18 01:28:32;;;;;;;1.50;1.40;;;12.80;79.70;;;;;;5019675;28;20493;-62
2023/02/18 01:31:03;;;;;;;3.47;2.88;;;12.80;79.70;;;;;;5018912;28;20041;-62
2023/02/18 01:33:28;;;;;;;1.98;1.77;;;12.80;79.70;;;;;;5017929;28;20079;-62
2023/02/18 01:35:54;;;;;;;2.00;1.75;;;12.80;79.80;;;;;;5018674;28;20098;-62
2023/02/18 01:38:19;;;;;;;4.18;1.65;;;12.80;79.80;;;;;;5018787;28;20029;-62
2023/02/18 01:40:51;;;;;;;1.67;1.48;;;12.80;79.80;;;;;;5018567;28;20042;-62
2023/02/18 01:43:18;;;;;;;1.88;1.67;;;12.70;79.90;;;;;;5018135;28;20040;-60
2023/02/18 01:46:02;;;;;;;2.38;1.58;;;12.70;79.80;;;;;;5017012;28;21998;-59
2023/02/18 01:48:52;;;;;;;2.80;1.95;;;12.70;79.90;;;;;;5017888;28;20117;-61
2023/02/18 01:51:31;;;;;;;1.70;1.30;;;12.70;79.60;;;;;;5017056;28;20467;-62
2023/02/18 01:54:05;;;;;;;1.80;1.40;;;12.70;79.80;;;;;;5018635;28;20075;-62
2023/02/18 01:56:43;;;;;;;1.70;1.60;;;12.70;79.70;;;;;;5017469;28;20038;-61
2023/02/18 01:59:15;;;;;;;2.50;1.70;;;12.70;79.60;;;;;;5017243;28;20030;-60
2023/02/18 02:01:43;;;;;;;2.67;1.65;;;12.70;79.60;;;;;;5025840;28;20408;-61
2023/02/18 02:04:09;;;;;;;2.47;1.63;;;12.60;79.60;;;;;;5017580;28;20394;-60
2023/02/18 02:06:35;;;;;;;2.42;1.50;;;12.70;79.60;;;;;;5018643;28;20404;-61
2023/02/18 02:09:03;;;;;;;2.50;1.73;;;12.60;79.60;;;;;;5018597;28;20473;-62
2023/02/18 02:11:31;;;;;;;2.42;1.50;;;12.60;79.80;;;;;;5019458;28;20423;-62
2023/02/18 02:14:10;;;;;;;1.65;1.55;;;12.60;79.80;;;;;;5017014;28;20129;-62
2023/02/18 02:16:51;;;;;;;1.80;1.40;;;12.50;80.10;;;;;;5013205;28;20112;-61
2023/02/18 02:19:38;;;;;;;1.75;1.50;;;12.50;80.20;;;;;;5018359;28;20034;-60
2023/02/18 02:22:23;;;;;;;1.60;1.38;;;12.50;80.00;;;;;;5017832;28;20060;-60
2023/02/18 02:25:13;;;;;;;1.40;1.30;;;12.50;80.50;;;;;;5017604;28;20041;-60
2023/02/18 02:27:44;;;;;;;2.00;1.42;;;12.50;80.30;;;;;;5016791;28;20065;-61
2023/02/18 02:30:38;;;;;;;1.50;1.30;;;12.40;80.10;;;;;;5018170;28;20405;-60
2023/02/18 02:33:25;;;;;;;1.73;1.30;;;12.40;80.50;;;;;;5016812;28;20132;-62
2023/02/18 02:35:57;;;;;;;1.98;1.50;;;12.40;80.30;;;;;;5018393;28;20133;-61
2023/02/18 02:38:30;;;;;;;2.90;1.50;;;12.40;80.40;;;;;;5017510;28;20041;-61
2023/02/18 02:41:12;;;;;;;1.40;1.30;;;12.40;80.10;;;;;;5017112;28;20565;-60
2023/02/18 02:43:50;;;;;;;1.38;1.27;;;12.40;80.70;;;;;;5017915;28;20095;-62
2023/02/18 02:46:18;;;;;;;1.40;1.15;;;12.30;80.40;;;;;;5018269;28;20108;-60
2023/02/18 02:49:15;;;;;;;1.42;1.33;;;12.30;80.50;;;;;;5018363;28;20052;-61
2023/02/18 02:51:49;;;;;;;1.55;1.38;;;12.30;80.90;;;;;;5018156;28;20413;-62
2023/02/18 02:54:23;;;;;;;2.95;1.38;;;12.20;80.60;;;;;;5017768;28;20125;-63
2023/02/18 02:57:03;;;;;;;1.52;1.40;;;12.30;80.70;;;;;;5017791;28;20381;-59
2023/02/18 02:59:28;;;;;;;1.88;1.20;;;12.20;80.50;;;;;;5016378;28;20462;-61
2023/02/18 03:02:37;;;;;;;1.23;1.13;;;12.20;80.60;;;;;;5016817;28;20124;-59
2023/02/18 03:05:37;;;;;;;1.45;1.00;;;12.20;81.30;;;;;;5016740;28;20065;-61
2023/02/18 03:08:21;;;;;;;1.27;1.08;;;12.20;81.30;;;;;;5016736;28;20030;-60
2023/02/18 03:11:04;;;;;;;1.20;1.03;;;12.20;81.20;;;;;;5023824;28;20045;-62
2023/02/18 03:13:37;;;;;;;1.00;0.90;;;12.20;81.00;;;;;;5016452;28;20037;-61
2023/02/18 03:16:31;;;;;;;0.82;0.80;;;12.20;81.30;;;;;;5013911;28;20473;-63
2023/02/18 03:19:23;;;;;;;2.72;1.33;;;12.10;81.50;;;;;;5014581;28;20041;-59
2023/02/18 03:21:59;;;;;;;0.90;0.90;;;12.20;81.90;;;;;;5012309;28;20042;-60
2023/02/18 03:24:41;;;;;;;1.10;1.00;;;12.20;81.60;;;;;;5015657;28;20064;-61
2023/02/18 03:27:16;;;;;;;1.67;1.00;;;12.20;81.50;;;;;;5016525;28;20565;-61
2023/02/18 03:29:45;;;;;;;1.02;0.90;;;12.20;81.20;;;;;;5016053;28;20041;-62
2023/02/18 03:32:14;;;;;;;1.10;0.82;;;12.30;81.20;;;;;;5014207;28;20034;-63
2023/02/18 03:34:46;;;;;;;1.10;0.93;;;12.30;81.10;;;;;;5015536;28;20326;-60
2023/02/18 03:37:13;;;;;;;1.05;0.90;;;12.30;81.00;;;;;;5016647;28;20251;-62
2023/02/18 03:39:41;;;;;;;1.27;0.80;;;12.30;80.90;;;;;;5011826;28;20405;-62
2023/02/18 03:42:07;;;;;;;1.20;0.70;;;12.30;80.90;;;;;;5010313;28;20041;-62
2023/02/18 03:44:33;;;;;;;1.35;0.80;;;12.30;80.90;;;;;;5013323;28;20416;-62
2023/02/18 03:46:58;;;;;;;0.85;0.85;;;12.30;80.80;;;;;;5013923;28;20041;-60
2023/02/18 03:49:24;;;;;;;0.98;0.93;;;12.30;80.70;;;;;;5011779;28;20489;-62
2023/02/18 03:51:50;;;;;;;0.80;0.80;;;12.30;80.70;;;;;;5012280;28;20033;-60
2023/02/18 03:54:15;;;;;;;0.95;0.90;;;12.30;80.70;;;;;;5015666;28;20461;-62
2023/02/18 03:56:41;;;;;;;0.70;0.70;;;12.30;80.80;;;;;;5014276;28;20041;-60
2023/02/18 03:59:07;;;;;;;1.13;1.05;;;12.30;80.90;;;;;;5014838;28;20038;-60
2023/02/18 04:01:34;;;;;;;0.90;0.70;;;12.20;80.80;;;;;;5009593;28;20045;-62
2023/02/18 04:04:00;;;;;;;0.80;0.80;;;12.30;81.00;;;;;;5011571;28;20564;-61
2023/02/18 04:06:25;;;;;;;1.58;0.90;;;12.30;81.00;;;;;;5011289;28;20038;-62
2023/02/18 04:08:51;;;;;;;1.20;0.93;;;12.20;81.00;;;;;;5014450;28;20048;-60
2023/02/18 04:11:16;;;;;;;0.77;0.77;;;12.20;81.00;;;;;;5014029;28;20038;-61
2023/02/18 04:13:42;;;;;;;1.00;1.00;;;12.20;81.00;;;;;;5016724;28;20060;-62
2023/02/18 04:16:08;;;;;;;1.10;0.88;;;12.20;81.10;;;;;;5017023;28;20037;-61
2023/02/18 04:18:34;;;;;;;0.90;0.90;;;12.20;81.10;;;;;;5018149;28;20036;-62
2023/02/18 04:20:59;;;;;;;0.80;0.80;;;12.20;81.10;;;;;;5019047;28;20512;-61
2023/02/18 04:23:25;;;;;;;0.80;0.80;;;12.20;81.10;;;;;;5017982;28;20033;-61
2023/02/18 04:25:51;;;;;;;1.02;0.93;;;12.30;81.20;;;;;;5017909;28;20124;-60
2023/02/18 04:28:17;;;;;;;1.02;1.00;;;12.20;81.20;;;;;;5019351;28;20136;-62
2023/02/18 04:30:43;;;;;;;0.98;0.98;;;12.20;81.20;;;;;;5017643;28;20046;-60
2023/02/18 04:33:09;;;;;;;1.05;0.80;;;12.20;81.20;;;;;;5017530;28;20034;-60
2023/02/18 04:35:35;;;;;;;2.95;1.30;;;12.20;81.20;;;;;;5016766;28;20040;-61
2023/02/18 04:38:02;;;;;;;0.80;0.70;;;12.20;81.30;;;;;;5017769;28;20095;-62
2023/02/18 04:40:29;;;;;;;1.02;1.02;;;12.10;81.30;;;;;;5016999;28;20102;-60
2023/02/18 04:42:56;;;;;;;1.35;0.90;;;12.10;81.30;;;;;;5017737;28;20038;-61
2023/02/18 04:45:23;;;;;;;2.13;1.92;;;12.10;81.30;;;;;;5012916;28;20049;-60
2023/02/18 04:47:48;;;;;;;12.07;8.38;;;12.10;81.30;;;;;;5014407;28;20517;-61
2023/02/18 04:50:14;;;;;;;4.85;3.50;;;12.10;81.40;;;;;;5016646;28;20101;-60
2023/02/18 04:52:40;;;;;;;2.10;1.90;;;12.10;81.40;;;;;;5012215;28;20095;-62
2023/02/18 04:55:06;;;;;;;2.92;2.72;;;12.10;81.40;;;;;;5015784;28;20029;-61
2023/02/18 04:57:31;;;;;;;2.95;2.65;;;12.10;81.30;;;;;;5015050;28;20045;-60
2023/02/18 04:59:57;;;;;;;1.50;1.40;;;12.10;81.30;;;;;;5015115;28;20118;-61
2023/02/18 05:02:22;;;;;;;1.77;1.67;;;12.10;81.30;;;;;;5011892;28;21408;-61
2023/02/18 05:04:48;;;;;;;1.20;1.10;;;12.10;81.30;;;;;;5014028;28;20409;-61
2023/02/18 05:07:14;;;;;;;0.90;0.90;;;12.10;81.50;;;;;;5014453;28;20038;-60
2023/02/18 05:09:40;;;;;;;1.17;1.08;;;12.10;81.30;;;;;;5016617;28;20057;-61
2023/02/18 05:12:05;;;;;;;1.05;0.95;;;12.10;81.30;;;;;;5019180;28;20103;-61
2023/02/18 05:14:31;;;;;;;1.23;1.15;;;12.00;81.30;;;;;;5015794;28;20034;-63
2023/02/18 05:16:57;;;;;;;1.88;1.75;;;12.00;81.30;;;;;;5014515;28;20037;-61
2023/02/18 05:19:22;;;;;;;2.45;2.00;;;12.00;81.30;;;;;;5013663;28;20033;-61
2023/02/18 05:21:48;;;;;;;5.07;3.78;;;12.00;81.30;;;;;;5014575;28;20056;-62
2023/02/18 05:24:13;;;;;;;1.52;1.42;;;12.00;81.40;;;;;;5017876;28;20029;-60
2023/02/18 05:26:39;;;;;;;1.20;1.10;;;12.10;81.50;;;;;;5014200;28;20639;-63
2023/02/18 05:29:05;;;;;;;1.40;1.25;;;12.00;81.40;;;;;;5016364;28;20120;-60
2023/02/18 05:31:31;;;;;;;1.40;1.30;;;12.00;81.50;;;;;;5014251;28;20774;-57
2023/02/18 05:33:56;;;;;;;3.22;2.92;;;12.00;81.50;;;;;;5013453;28;20057;-60
2023/02/18 05:36:22;;;;;;;5.95;5.20;;;12.00;81.50;;;;;;5016408;28;20117;-60
2023/02/18 05:38:48;;;;;;;5.10;4.57;;;12.00;81.50;;;;;;5016720;28;20056;-61
2023/02/18 05:41:13;;;;;;;3.03;2.70;;;12.00;81.50;;;;;;5016825;28;20539;-62
2023/02/18 05:46:23;;;;;;;1.30;0.97;;;12.00;81.60;;;;;;5013535;28;20096;-60
2023/02/18 05:48:49;;;;;;;0.80;0.77;;;12.00;81.50;;;;;;5010707;28;20672;-60
2023/02/18 05:51:15;;;;;;;1.02;0.63;;;12.10;81.60;;;;;;5016404;28;20038;-62
2023/02/18 05:53:40;;;;;;;0.82;0.50;;;12.00;81.50;;;;;;5015723;28;20037;-61
2023/02/18 05:56:06;;;;;;;0.65;0.60;;;12.00;81.50;;;;;;5016830;28;20129;-59
2023/02/18 05:58:32;;;;;;;0.80;0.70;;;12.00;81.50;;;;;;5015794;28;20038;-62
2023/02/18 06:00:57;;;;;;;0.90;0.70;;;12.00;81.60;;;;;;5018202;28;20061;-61
2023/02/18 06:03:23;;;;;;;0.70;0.70;;;12.00;81.50;;;;;;5014046;28;20067;-61
2023/02/18 06:05:49;;;;;;;0.65;0.65;;;12.00;81.60;;;;;;5013453;28;20045;-60
2023/02/18 06:08:15;;;;;;;0.88;0.52;;;12.00;81.60;;;;;;5014079;28;20048;-60
2023/02/18 06:10:41;;;;;;;0.80;0.60;;;12.00;81.70;;;;;;5014525;28;20042;-61
2023/02/18 06:13:06;;;;;;;0.60;0.60;;;12.00;81.60;;;;;;5014495;28;20038;-60
2023/02/18 06:15:32;;;;;;;0.50;0.50;;;12.10;81.70;;;;;;5009664;28;20045;-62
2023/02/18 06:17:57;;;;;;;0.80;0.80;;;12.10;81.70;;;;;;5017002;28;20041;-62
2023/02/18 06:20:23;;;;;;;0.60;0.60;;;12.10;81.70;;;;;;5013086;28;20402;-62
2023/02/18 06:22:49;;;;;;;0.95;0.57;;;12.10;81.50;;;;;;5015470;28;20133;-61
2023/02/18 06:25:14;;;;;;;0.70;0.70;;;12.10;81.50;;;;;;5016903;28;20076;-59
2023/02/18 06:27:40;;;;;;;0.80;0.50;;;12.10;81.50;;;;;;5013329;28;20042;-60
2023/02/18 06:30:06;;;;;;;8.88;4.18;;;12.10;81.50;;;;;;5011831;28;21006;-62
2023/02/18 06:32:31;;;;;;;2.20;1.88;;;12.10;81.50;;;;;;5016123;28;20061;-62
2023/02/18 06:34:57;;;;;;;3.08;2.80;;;12.10;81.60;;;;;;5019485;28;20552;-61
2023/02/18 06:37:23;;;;;;;2.33;1.80;;;12.10;81.50;;;;;;5018049;28;20030;-62
2023/02/18 06:39:48;;;;;;;5.72;4.88;;;12.10;81.50;;;;;;5017699;28;20045;-60
2023/02/18 06:42:14;;;;;;;1.50;1.40;;;12.10;81.50;;;;;;5013727;28;20120;-59
2023/02/18 06:44:39;;;;;;;7.00;4.80;;;12.10;81.40;;;;;;5011162;28;20041;-60
2023/02/18 06:47:06;;;;;;;2.47;2.10;;;12.10;81.50;;;;;;5015078;28;20559;-60
2023/02/18 06:49:31;;;;;;;6.40;3.88;;;12.10;81.30;;;;;;5015616;28;20033;-60
2023/02/18 06:51:57;;;;;;;5.35;3.60;;;12.10;81.40;;;;;;5016979;28;20503;-61
2023/02/18 06:54:23;;;;;;;11.07;6.72;;;12.10;81.50;;;;;;5009296;28;20060;-62
2023/02/18 06:56:49;;;;;;;3.08;2.78;;;12.10;81.40;;;;;;5012781;28;20065;-61
2023/02/18 06:59:15;;;;;;;2.80;2.60;;;12.10;81.40;;;;;;5012997;28;20037;-60
2023/02/18 07:01:40;;;;;;;2.92;2.60;;;12.10;81.50;;;;;;5011208;28;20417;-60
2023/02/18 07:04:06;;;;;;;1.38;1.20;;;12.10;81.30;;;;;;5015644;28;20117;-61
2023/02/18 07:06:32;;;;;;;0.70;0.70;;;12.10;81.40;;;;;;5014670;28;20028;-60
2023/02/18 07:08:57;;;;;;;1.63;0.80;;;12.10;81.30;;;;;;5016655;28;20061;-62
2023/02/18 07:11:23;;;;;;;0.80;0.80;;;12.10;81.20;;;;;;5015572;28;20078;-61
2023/02/18 07:13:48;;;;;;;2.03;1.92;;;12.10;81.20;;;;;;5014596;28;20037;-62
2023/02/18 07:16:14;;;;;;;1.77;1.67;;;12.10;81.20;;;;;;5012908;28;20069;-62
2023/02/18 07:18:39;;;;;;;1.63;1.52;;;12.10;81.20;;;;;;5015920;28;20038;-62
2023/02/18 07:21:05;;;;;;;1.20;1.10;;;12.10;81.20;;;;;;5012531;28;20029;-61
2023/02/18 07:23:31;;;;;;;2.33;1.50;;;12.20;81.20;;;;;;5014283;28;20038;-62
2023/02/18 07:26:07;;;;;;;0.98;0.98;;;12.20;81.20;;;;;;5013501;28;20520;-60
2023/02/18 07:28:33;;;;;;;0.80;0.80;;;12.20;81.20;;;;;;5015393;28;20045;-61
2023/02/18 07:30:58;;;;;;;0.90;0.80;;;12.20;81.00;;;;;;5012033;28;20563;-61
2023/02/18 07:33:24;;;;;;;0.70;0.70;;;12.20;80.90;;;;;;5010405;28;20701;-61
2023/02/18 07:35:58;;;;;;;0.70;0.52;;;12.30;80.90;;;;;;5013122;28;20038;-61
2023/02/18 07:38:24;;;;;;;0.70;0.70;;;12.20;80.80;;;;;;5012903;28;20498;-60
2023/02/18 07:40:50;;;;;;;0.60;0.60;;;12.30;80.80;;;;;;5014515;28;20033;-63
2023/02/18 07:43:16;;;;;;;1.70;0.65;;;12.20;80.60;;;;;;5012204;28;20100;-61
2023/02/18 07:45:42;;;;;;;0.90;0.57;;;12.30;80.70;;;;;;5010130;28;20042;-61
2023/02/18 07:48:08;;;;;;;0.52;0.52;;;12.30;80.60;;;;;;5012922;28;20103;-60
2023/02/18 07:50:34;;;;;;;2.88;1.95;;;12.30;80.60;;;;;;5016601;28;20104;-58
2023/02/18 07:53:00;;;;;;;5.68;4.35;;;12.30;80.60;;;;;;5000987;28;20096;-61
2023/02/18 07:55:47;;;;;;;2.35;2.15;;;12.40;80.60;;;;;;5004879;28;20042;-60
2023/02/18 07:58:14;;;;;;;1.55;1.45;;;12.30;80.50;;;;;;5001017;28;20493;-62
2023/02/18 08:00:39;;;;;;;0.57;0.57;;;12.40;80.50;;;;;;5009788;28;20532;-60
2023/02/18 08:03:05;;;;;;;0.60;0.40;;;12.40;80.40;;;;;;5000047;28;20136;-60
2023/02/18 08:05:31;;;;;;;0.47;0.40;;;12.40;80.30;;;;;;5011984;28;20539;-62
2023/02/18 08:07:56;;;;;;;0.63;0.30;;;12.50;80.40;;;;;;5013483;28;20432;-62
2023/02/18 08:10:22;;;;;;;0.65;0.52;;;12.50;80.40;;;;;;5014298;28;20136;-60
2023/02/18 08:12:48;;;;;;;0.77;0.70;;;12.60;80.40;;;;;;5015372;28;20513;-62
2023/02/18 08:15:13;;;;;;;0.82;0.40;;;12.60;80.30;;;;;;5010711;28;20129;-61
2023/02/18 08:17:39;;;;;;;0.40;0.35;;;12.70;80.30;;;;;;5010578;28;20432;-61
2023/02/18 08:20:05;;;;;;;0.30;0.30;;;12.70;80.00;;;;;;5010293;28;20099;-61
2023/02/18 08:22:31;;;;;;;0.30;0.30;;;12.80;80.00;;;;;;5007893;28;20030;-61
2023/02/18 08:24:56;;;;;;;0.30;0.30;;;12.80;79.80;;;;;;5012859;28;20033;-61
2023/02/18 08:27:23;;;;;;;1.05;0.40;;;12.90;79.80;;;;;;5017251;28;20508;-60
2023/02/18 08:29:48;;;;;;;0.45;0.30;;;12.90;79.60;;;;;;5016886;28;20127;-60
2023/02/18 08:32:14;;;;;;;0.80;0.30;;;13.00;79.60;;;;;;5007111;28;20493;-61
2023/02/18 08:34:39;;;;;;;2.17;0.57;;;13.00;79.50;;;;;;5007502;28;20633;-60
2023/02/18 08:37:05;;;;;;;0.55;0.40;;;13.10;79.50;;;;;;5003524;28;20041;-61
2023/02/18 08:39:35;;;;;;;0.73;0.40;;;13.10;79.30;;;;;;5014465;28;20030;-61
2023/02/18 08:42:00;;;;;;;0.55;0.40;;;13.20;78.80;;;;;;5009298;28;20030;-62
2023/02/18 08:44:27;;;;;;;0.60;0.40;;;13.20;78.80;;;;;;5011074;28;20048;-61
2023/02/18 08:46:53;;;;;;;0.77;0.38;;;13.30;78.70;;;;;;5009490;28;20025;-59
2023/02/18 08:49:19;;;;;;;0.40;0.30;;;13.30;78.60;;;;;;5012706;28;20550;-62
2023/02/18 08:51:46;;;;;;;0.55;0.30;;;13.40;78.60;;;;;;5015549;28;20042;-62
2023/02/18 08:54:12;;;;;;;1.35;0.40;;;13.50;78.60;;;;;;5015596;28;20053;-61
2023/02/18 08:56:38;;;;;;;0.70;0.40;;;13.50;77.90;;;;;;5015706;28;20440;-61
2023/02/18 08:59:04;;;;;;;0.70;0.40;;;13.60;77.80;;;;;;5006314;28;20065;-62
2023/02/18 09:01:30;;;;;;;0.82;0.40;;;13.70;77.70;;;;;;5011015;28;20038;-62
2023/02/18 09:03:56;;;;;;;0.75;0.60;;;13.70;76.80;;;;;;5007605;28;20427;-61
2023/02/18 09:06:22;;;;;;;2.75;0.40;;;13.80;76.80;;;;;;5011447;28;20073;-63
2023/02/18 09:08:48;;;;;;;0.43;0.35;;;13.80;76.80;;;;;;5006839;28;20405;-62
2023/02/18 09:11:14;;;;;;;0.40;0.38;;;13.80;76.60;;;;;;5007952;28;20061;-62
2023/02/18 09:13:40;;;;;;;1.00;0.40;;;13.90;76.30;;;;;;5012614;28;20055;-58
2023/02/18 09:16:19;;;;;;;0.90;0.50;;;13.90;76.20;;;;;;5017159;28;20133;-62
2023/02/18 09:18:46;;;;;;;0.85;0.50;;;14.00;75.90;;;;;;5011497;28;20029;-62
2023/02/18 09:21:14;;;;;;;0.55;0.40;;;14.00;75.80;;;;;;5013910;28;20367;-58
2023/02/18 09:23:40;;;;;;;1.95;0.45;;;14.00;75.40;;;;;;5015483;28;20493;-62
2023/02/18 09:26:09;;;;;;;6.13;3.55;;;14.10;76.30;;;;;;5012383;28;20092;-61
2023/02/18 09:28:35;;;;;;;1.80;1.70;;;14.10;75.10;;;;;;5012063;28;20509;-62
2023/02/18 09:31:10;;;;;;;1.73;1.25;;;14.10;75.10;;;;;;5004114;28;21572;-62
2023/02/18 09:33:38;;;;;;;0.80;0.80;;;14.20;75.00;;;;;;5003856;28;20034;-61
2023/02/18 09:36:04;;;;;;;0.90;0.60;;;14.20;75.20;;;;;;5011564;28;20121;-61
2023/02/18 09:38:30;;;;;;;0.60;0.60;;;14.20;75.10;;;;;;5008744;28;20074;-61
2023/02/18 09:40:58;;;;;;;1.52;0.70;;;14.30;74.60;;;;;;5010328;28;20064;-62
2023/02/18 09:43:33;;;;;;;2.90;0.88;;;14.30;74.40;;;;;;5014148;28;20144;-62
2023/02/18 09:46:02;;;;;;;1.08;1.00;;;14.30;74.10;;;;;;5005540;28;20120;-62
2023/02/18 09:48:33;;;;;;;0.95;0.90;;;14.40;74.10;;;;;;5007578;28;20034;-62
2023/02/18 09:50:59;;;;;;;1.23;0.93;;;14.40;73.90;;;;;;5017301;28;20517;-62
2023/02/18 09:53:25;;;;;;;1.00;0.90;;;14.50;73.50;;;;;;5012587;28;20041;-62
2023/02/18 09:55:56;;;;;;;2.08;1.10;;;14.40;73.30;;;;;;5017497;28;20037;-61
2023/02/18 09:58:25;;;;;;;1.15;0.68;;;14.50;73.20;;;;;;5015337;28;20552;-61
2023/02/18 10:01:14;;;;;;;0.95;0.80;;;14.50;73.00;;;;;;5007141;28;20049;-62
2023/02/18 10:03:42;;;;;;;0.90;0.70;;;14.50;72.90;;;;;;5008403;28;20041;-62
2023/02/18 10:06:29;;;;;;;1.02;0.95;;;14.50;73.00;;;;;;5010467;28;20038;-62
2023/02/18 10:08:59;;;;;;;1.08;0.82;;;14.50;72.30;;;;;;5014855;28;20084;-62
2023/02/18 10:11:32;;;;;;;0.90;0.90;;;14.50;72.20;;;;;;5013192;28;20042;-62
2023/02/18 10:13:59;;;;;;;1.02;0.75;;;14.50;72.10;;;;;;5012799;28;20124;-62
2023/02/18 10:16:26;;;;;;;1.33;0.70;;;14.50;72.20;;;;;;5013847;28;20156;-62
2023/02/18 10:18:55;;;;;;;0.60;0.60;;;14.50;72.40;;;;;;5012406;28;20505;-60
2023/02/18 10:21:31;;;;;;;2.15;0.70;;;14.50;72.30;;;;;;5013768;28;20056;-61
2023/02/18 10:24:24;;;;;;;0.50;0.50;;;14.60;72.50;;;;;;5012053;28;20044;-62
2023/02/18 10:26:50;;;;;;;0.60;0.60;;;14.60;72.20;;;;;;5011650;28;20550;-60
2023/02/18 10:29:18;;;;;;;0.57;0.50;;;14.70;72.80;;;;;;5009560;28;20037;-61
2023/02/18 10:31:56;;;;;;;0.50;0.50;;;14.70;71.80;;;;;;5007504;28;20488;-62
2023/02/18 10:34:48;;;;;;;1.00;0.60;;;14.80;71.30;;;;;;5010998;28;20046;-62
2023/02/18 10:37:32;;;;;;;0.63;0.52;;;14.80;70.90;;;;;;5014628;28;20623;-61
2023/02/18 10:40:21;;;;;;;2.07;0.70;;;14.90;71.30;;;;;;5011576;28;20041;-62
2023/02/18 10:43:05;;;;;;;0.70;0.40;;;14.90;71.10;;;;;;5004270;28;20123;-61
2023/02/18 10:45:49;;;;;;;0.90;0.70;;;15.00;70.70;;;;;;5013971;28;20044;-61
2023/02/18 10:48:37;;;;;;;0.73;0.43;;;15.00;71.20;;;;;;5018443;28;20033;-61
2023/02/18 10:51:14;;;;;;;0.75;0.55;;;15.10;71.00;;;;;;5017839;28;20497;-59
2023/02/18 10:53:42;;;;;;;1.85;0.50;;;15.20;70.00;;;;;;5017338;28;20093;-61
2023/02/18 10:56:31;;;;;;;1.45;0.77;;;15.20;70.70;;;;;;5018826;28;20037;-60
2023/02/18 10:59:26;;;;;;;0.80;0.50;;;15.30;70.20;;;;;;5017308;28;20118;-60
2023/02/18 11:01:56;;;;;;;0.40;0.32;;;15.40;70.40;;;;;;5017709;28;20408;-60
2023/02/18 11:04:34;;;;;;;0.40;0.40;;;15.50;69.50;;;;;;5017866;28;20041;-59
2023/02/18 11:07:24;;;;;;;2.72;0.50;;;15.50;69.50;;;;;;5017725;28;20107;-61
2023/02/18 11:09:56;;;;;;;0.32;0.32;;;15.50;69.20;;;;;;5017949;28;20125;-59
2023/02/18 11:12:45;;;;;;;1.30;0.30;;;15.60;68.90;;;;;;5022474;28;20132;-61
2023/02/18 11:15:13;;;;;;;0.52;0.30;;;15.60;67.70;;;;;;5016547;28;20029;-59
2023/02/18 11:17:40;;;;;;;0.77;0.30;;;15.60;68.50;;;;;;5019070;28;20061;-62
2023/02/18 11:20:33;;;;;;;0.55;0.30;;;15.60;68.80;;;;;;5016583;28;20034;-60
2023/02/18 11:23:16;;;;;;;2.55;0.38;;;15.60;67.80;;;;;;5014316;28;20076;-60
2023/02/18 11:26:01;;;;;;;1.30;0.35;;;15.60;67.10;;;;;;5017748;28;20041;-60
2023/02/18 11:28:27;;;;;;;1.10;0.30;;;15.60;67.40;;;;;;5016201;28;20137;-61
2023/02/18 11:30:56;;;;;;;0.38;0.30;;;15.60;68.00;;;;;;5015790;28;20159;-62
2023/02/18 11:33:34;;;;;;;3.33;0.40;;;15.60;67.60;;;;;;5012127;28;20079;-61
2023/02/18 11:36:24;;;;;;;1.27;0.20;;;15.60;67.20;;;;;;5016198;28;20034;-59
2023/02/18 11:38:59;;;;;;;0.50;0.30;;;15.60;66.70;;;;;;5015148;28;20095;-60
2023/02/18 11:41:32;;;;;;;0.63;0.20;;;15.60;66.90;;;;;;5016456;28;20428;-61
2023/02/18 11:43:59;;;;;;;0.40;0.30;;;15.60;67.10;;;;;;5015674;28;20037;-62
2023/02/18 11:46:26;;;;;;;2.05;0.40;;;15.50;67.20;;;;;;5016322;28;20045;-59
2023/02/18 11:48:52;;;;;;;1.38;0.22;;;15.50;67.20;;;;;;5018051;28;20116;-59
2023/02/18 11:51:24;;;;;;;1.35;0.25;;;15.50;67.10;;;;;;5013027;28;20040;-60
2023/02/18 11:53:58;;;;;;;0.20;0.20;;;15.50;67.30;;;;;;5018114;28;20083;-60
2023/02/18 11:56:25;;;;;;;1.15;0.52;;;15.50;67.20;;;;;;5013900;28;20413;-60
2023/02/18 11:58:51;;;;;;;0.73;0.35;;;15.40;67.40;;;;;;5012435;28;20104;-60
2023/02/18 12:01:55;;;;;;;0.50;0.40;;;15.50;68.30;;;;;;5013187;28;20034;-61
2023/02/18 12:04:45;;;;;;;0.40;0.32;;;15.40;67.00;;;;;;4951760;28;20039;-59
2023/02/18 12:07:30;;;;;;;0.47;0.30;;;15.40;67.40;;;;;;5003987;28;20117;-61
2023/02/18 12:10:03;;;;;;;1.40;0.40;;;15.40;67.20;;;;;;5015238;28;20132;-60
2023/02/18 12:12:35;;;;;;;0.70;0.32;;;15.30;67.10;;;;;;5007506;28;20463;-59
2023/02/18 12:15:00;;;;;;;0.73;0.40;;;15.30;67.30;;;;;;5013032;28;20053;-61
2023/02/18 12:18:07;;;;;;;2.75;0.40;;;15.30;67.40;;;;;;5013522;28;20041;-62
2023/02/18 12:21:11;;;;;;;0.60;0.30;;;15.20;66.70;;;;;;5013831;28;20417;-60
2023/02/18 12:23:42;;;;;;;2.00;0.30;;;15.20;66.60;;;;;;4982456;28;20041;-61
2023/02/18 12:26:24;;;;;;;0.82;0.30;;;15.10;67.50;;;;;;5007940;28;20049;-59
2023/02/18 12:29:16;;;;;;;0.28;0.20;;;15.10;67.10;;;;;;5012095;28;20052;-60
2023/02/18 12:31:47;;;;;;;0.60;0.32;;;15.00;66.90;;;;;;5012359;28;20121;-59
2023/02/18 12:34:15;;;;;;;0.63;0.40;;;15.00;67.10;;;;;;5007802;28;20596;-59
2023/02/18 12:36:53;;;;;;;0.60;0.38;;;15.00;67.30;;;;;;5017820;28;20111;-59
2023/02/18 12:39:48;;;;;;;0.50;0.40;;;14.90;67.30;;;;;;5011249;28;20450;-57
2023/02/18 12:42:41;;;;;;;0.30;0.30;;;14.90;67.30;;;;;;5015932;28;20042;-61
2023/02/18 12:45:24;;;;;;;1.02;0.60;;;14.90;67.60;;;;;;5012790;28;20045;-62
2023/02/18 12:48:11;;;;;;;0.20;0.20;;;14.90;68.10;;;;;;5012998;28;20079;-61
2023/02/18 12:50:56;;;;;;;0.30;0.30;;;14.80;68.20;;;;;;5016524;28;20042;-60
2023/02/18 12:53:57;;;;;;;0.43;0.32;;;14.80;68.00;;;;;;5016970;28;20125;-60
2023/02/18 12:56:35;;;;;;;1.75;0.50;;;14.80;68.00;;;;;;5003563;28;20033;-60
2023/02/18 12:59:32;;;;;;;1.08;0.35;;;14.80;68.00;;;;;;5013316;28;20045;-60
2023/02/18 13:02:19;;;;;;;0.95;0.30;;;14.80;68.30;;;;;;5011476;28;20046;-60
2023/02/18 13:05:10;;;;;;;0.50;0.40;;;14.70;68.20;;;;;;5015421;28;20469;-59
2023/02/18 13:08:06;;;;;;;0.50;0.30;;;14.70;68.00;;;;;;5017209;28;20025;-60
2023/02/18 13:11:07;;;;;;;0.30;0.30;;;14.70;68.20;;;;;;5015649;28;20404;-60